sensor_id;sensor_type;location;lat;lon;timestamp;P1;durP1;ratioP1;P2;durP2;ratioP2
10110;SDS011;5095;49.796;9.934;2022-10-19T00:01:16;5.10;;;2.60;;
10110;SDS011;5095;49.796;9.934;2022-10-19T00:03:43;3.70;;;2.80;;
10110;SDS011;5095;49.796;9.934;2022-10-19T00:08:36;4.90;;;2.63;;
10110;SDS011;5095;49.796;9.934;2022-10-19T00:11:02;3.50;;;2.80;;
10110;SDS011;5095;49.796;9.934;2022-10-19T00:13:28;4.77;;;2.80;;
10110;SDS011;5095;49.796;9.934;2022-10-19T00:15:54;3.53;;;2.13;;
10110;SDS011;5095;49.796;9.934;2022-10-19T00:18:20;5.20;;;2.10;;
10110;SDS011;5095;49.796;9.934;2022-10-19T00:20:46;2.70;;;2.30;;
10110;SDS011;5095;49.796;9.934;2022-10-19T00:23:12;4.93;;;2.00;;
10110;SDS011;5095;49.796;9.934;2022-10-19T00:25:38;3.77;;;2.47;;
10110;SDS011;5095;49.796;9.934;2022-10-19T00:28:04;3.60;;;2.30;;
10110;SDS011;5095;49.796;9.934;2022-10-19T00:30:30;2.67;;;2.40;;
10110;SDS011;5095;49.796;9.934;2022-10-19T00:32:56;3.23;;;2.57;;
10110;SDS011;5095;49.796;9.934;2022-10-19T00:35:22;4.80;;;3.00;;
10110;SDS011;5095;49.796;9.934;2022-10-19T00:37:48;3.90;;;3.00;;
10110;SDS011;5095;49.796;9.934;2022-10-19T00:40:14;5.13;;;3.37;;
10110;SDS011;5095;49.796;9.934;2022-10-19T00:42:40;4.73;;;3.20;;
10110;SDS011;5095;49.796;9.934;2022-10-19T00:45:11;12.27;;;4.13;;
10110;SDS011;5095;49.796;9.934;2022-10-19T00:47:37;4.27;;;3.30;;
10110;SDS011;5095;49.796;9.934;2022-10-19T00:50:04;6.80;;;3.20;;
10110;SDS011;5095;49.796;9.934;2022-10-19T00:52:30;5.47;;;3.00;;
10110;SDS011;5095;49.796;9.934;2022-10-19T00:54:56;5.70;;;2.77;;
10110;SDS011;5095;49.796;9.934;2022-10-19T00:57:25;5.53;;;3.07;;
10110;SDS011;5095;49.796;9.934;2022-10-19T00:59:51;5.50;;;3.37;;
10110;SDS011;5095;49.796;9.934;2022-10-19T01:02:18;15.67;;;4.27;;
10110;SDS011;5095;49.796;9.934;2022-10-19T01:04:45;5.03;;;3.40;;
10110;SDS011;5095;49.796;9.934;2022-10-19T01:07:12;5.73;;;3.00;;
10110;SDS011;5095;49.796;9.934;2022-10-19T01:09:38;14.57;;;2.93;;
10110;SDS011;5095;49.796;9.934;2022-10-19T01:17:11;4.47;;;2.90;;
10110;SDS011;5095;49.796;9.934;2022-10-19T01:22:28;5.27;;;3.03;;
10110;SDS011;5095;49.796;9.934;2022-10-19T01:29:58;7.77;;;2.90;;
10110;SDS011;5095;49.796;9.934;2022-10-19T01:35:07;9.07;;;3.50;;
10110;SDS011;5095;49.796;9.934;2022-10-19T01:37:39;6.13;;;3.60;;
10110;SDS011;5095;49.796;9.934;2022-10-19T01:40:11;6.70;;;3.13;;
10110;SDS011;5095;49.796;9.934;2022-10-19T01:42:54;8.37;;;3.33;;
10110;SDS011;5095;49.796;9.934;2022-10-19T01:48:01;7.77;;;3.30;;
10110;SDS011;5095;49.796;9.934;2022-10-19T01:50:31;10.70;;;3.50;;
10110;SDS011;5095;49.796;9.934;2022-10-19T01:52:58;7.63;;;4.00;;
10110;SDS011;5095;49.796;9.934;2022-10-19T01:55:25;8.47;;;3.60;;
10110;SDS011;5095;49.796;9.934;2022-10-19T01:57:55;8.60;;;3.57;;
10110;SDS011;5095;49.796;9.934;2022-10-19T02:00:22;6.90;;;3.73;;
10110;SDS011;5095;49.796;9.934;2022-10-19T02:02:49;6.10;;;3.67;;
10110;SDS011;5095;49.796;9.934;2022-10-19T02:05:16;9.27;;;3.73;;
10110;SDS011;5095;49.796;9.934;2022-10-19T02:07:44;12.70;;;3.60;;
10110;SDS011;5095;49.796;9.934;2022-10-19T02:10:11;5.93;;;4.13;;
10110;SDS011;5095;49.796;9.934;2022-10-19T02:12:37;8.67;;;4.00;;
10110;SDS011;5095;49.796;9.934;2022-10-19T02:15:06;5.20;;;3.80;;
10110;SDS011;5095;49.796;9.934;2022-10-19T02:17:34;6.73;;;4.60;;
10110;SDS011;5095;49.796;9.934;2022-10-19T02:20:02;7.23;;;3.50;;
10110;SDS011;5095;49.796;9.934;2022-10-19T02:22:29;6.10;;;4.27;;
10110;SDS011;5095;49.796;9.934;2022-10-19T02:24:55;7.13;;;4.23;;
10110;SDS011;5095;49.796;9.934;2022-10-19T02:27:22;6.73;;;4.10;;
10110;SDS011;5095;49.796;9.934;2022-10-19T02:29:48;7.17;;;4.17;;
10110;SDS011;5095;49.796;9.934;2022-10-19T02:32:14;6.17;;;3.90;;
10110;SDS011;5095;49.796;9.934;2022-10-19T02:34:40;9.57;;;5.10;;
10110;SDS011;5095;49.796;9.934;2022-10-19T02:37:06;10.90;;;4.20;;
10110;SDS011;5095;49.796;9.934;2022-10-19T02:39:32;5.80;;;3.60;;
10110;SDS011;5095;49.796;9.934;2022-10-19T02:42:00;5.50;;;3.70;;
10110;SDS011;5095;49.796;9.934;2022-10-19T02:44:30;9.50;;;4.17;;
10110;SDS011;5095;49.796;9.934;2022-10-19T02:47:04;7.47;;;4.13;;
10110;SDS011;5095;49.796;9.934;2022-10-19T02:49:32;8.40;;;4.30;;
10110;SDS011;5095;49.796;9.934;2022-10-19T02:52:00;6.67;;;4.40;;
10110;SDS011;5095;49.796;9.934;2022-10-19T02:54:26;7.80;;;4.30;;
10110;SDS011;5095;49.796;9.934;2022-10-19T02:56:52;6.70;;;4.53;;
10110;SDS011;5095;49.796;9.934;2022-10-19T02:59:19;5.97;;;3.90;;
10110;SDS011;5095;49.796;9.934;2022-10-19T03:01:45;5.93;;;3.97;;
10110;SDS011;5095;49.796;9.934;2022-10-19T03:04:11;5.47;;;2.80;;
10110;SDS011;5095;49.796;9.934;2022-10-19T03:06:37;3.03;;;2.50;;
10110;SDS011;5095;49.796;9.934;2022-10-19T03:09:03;5.13;;;2.80;;
10110;SDS011;5095;49.796;9.934;2022-10-19T03:11:29;3.60;;;2.57;;
10110;SDS011;5095;49.796;9.934;2022-10-19T03:13:55;4.43;;;2.70;;
10110;SDS011;5095;49.796;9.934;2022-10-19T03:16:21;3.17;;;2.67;;
10110;SDS011;5095;49.796;9.934;2022-10-19T03:18:47;4.90;;;2.93;;
10110;SDS011;5095;49.796;9.934;2022-10-19T03:21:14;2.97;;;2.57;;
10110;SDS011;5095;49.796;9.934;2022-10-19T03:23:40;2.57;;;2.33;;
10110;SDS011;5095;49.796;9.934;2022-10-19T03:26:07;3.20;;;2.50;;
10110;SDS011;5095;49.796;9.934;2022-10-19T03:28:33;4.27;;;2.73;;
10110;SDS011;5095;49.796;9.934;2022-10-19T03:31:07;4.23;;;3.00;;
10110;SDS011;5095;49.796;9.934;2022-10-19T03:33:33;4.57;;;2.90;;
10110;SDS011;5095;49.796;9.934;2022-10-19T03:36:12;3.97;;;2.60;;
10110;SDS011;5095;49.796;9.934;2022-10-19T03:38:38;2.63;;;2.13;;
10110;SDS011;5095;49.796;9.934;2022-10-19T03:41:05;2.90;;;2.10;;
10110;SDS011;5095;49.796;9.934;2022-10-19T03:43:31;4.50;;;3.23;;
10110;SDS011;5095;49.796;9.934;2022-10-19T03:45:57;5.00;;;3.77;;
10110;SDS011;5095;49.796;9.934;2022-10-19T03:48:23;5.00;;;3.37;;
10110;SDS011;5095;49.796;9.934;2022-10-19T03:50:57;4.10;;;3.00;;
10110;SDS011;5095;49.796;9.934;2022-10-19T03:53:23;3.90;;;3.07;;
10110;SDS011;5095;49.796;9.934;2022-10-19T03:55:49;5.43;;;3.50;;
10110;SDS011;5095;49.796;9.934;2022-10-19T03:58:15;6.87;;;4.20;;
10110;SDS011;5095;49.796;9.934;2022-10-19T04:00:41;6.43;;;4.37;;
10110;SDS011;5095;49.796;9.934;2022-10-19T04:03:07;7.17;;;4.53;;
10110;SDS011;5095;49.796;9.934;2022-10-19T04:05:33;6.67;;;4.10;;
10110;SDS011;5095;49.796;9.934;2022-10-19T04:07:59;5.30;;;3.60;;
10110;SDS011;5095;49.796;9.934;2022-10-19T04:10:25;4.97;;;3.57;;
10110;SDS011;5095;49.796;9.934;2022-10-19T04:12:51;5.90;;;3.93;;
10110;SDS011;5095;49.796;9.934;2022-10-19T04:15:17;6.47;;;4.03;;
10110;SDS011;5095;49.796;9.934;2022-10-19T04:17:43;5.20;;;3.90;;
10110;SDS011;5095;49.796;9.934;2022-10-19T04:20:09;5.90;;;3.97;;
10110;SDS011;5095;49.796;9.934;2022-10-19T04:22:35;5.37;;;3.60;;
10110;SDS011;5095;49.796;9.934;2022-10-19T04:25:01;5.87;;;3.70;;
10110;SDS011;5095;49.796;9.934;2022-10-19T04:27:27;8.83;;;4.20;;
10110;SDS011;5095;49.796;9.934;2022-10-19T04:29:53;6.07;;;3.90;;
10110;SDS011;5095;49.796;9.934;2022-10-19T04:32:19;6.67;;;4.53;;
10110;SDS011;5095;49.796;9.934;2022-10-19T04:34:45;7.07;;;4.20;;
10110;SDS011;5095;49.796;9.934;2022-10-19T04:37:11;9.03;;;4.80;;
10110;SDS011;5095;49.796;9.934;2022-10-19T04:39:37;4.37;;;3.20;;
10110;SDS011;5095;49.796;9.934;2022-10-19T04:42:05;5.70;;;3.27;;
10110;SDS011;5095;49.796;9.934;2022-10-19T04:44:31;7.40;;;3.53;;
10110;SDS011;5095;49.796;9.934;2022-10-19T04:46:57;5.90;;;4.00;;
10110;SDS011;5095;49.796;9.934;2022-10-19T04:49:23;6.97;;;4.43;;
10110;SDS011;5095;49.796;9.934;2022-10-19T04:51:49;7.20;;;4.50;;
10110;SDS011;5095;49.796;9.934;2022-10-19T04:54:15;7.63;;;4.13;;
10110;SDS011;5095;49.796;9.934;2022-10-19T04:56:40;7.17;;;4.20;;
10110;SDS011;5095;49.796;9.934;2022-10-19T04:59:06;5.37;;;3.13;;
10110;SDS011;5095;49.796;9.934;2022-10-19T05:01:32;5.63;;;2.67;;
10110;SDS011;5095;49.796;9.934;2022-10-19T05:04:00;4.07;;;2.63;;
10110;SDS011;5095;49.796;9.934;2022-10-19T05:06:27;4.40;;;2.90;;
10110;SDS011;5095;49.796;9.934;2022-10-19T05:08:54;6.70;;;2.93;;
10110;SDS011;5095;49.796;9.934;2022-10-19T05:11:20;5.20;;;3.07;;
10110;SDS011;5095;49.796;9.934;2022-10-19T05:13:47;5.27;;;2.87;;
10110;SDS011;5095;49.796;9.934;2022-10-19T05:16:14;3.47;;;2.80;;
10110;SDS011;5095;49.796;9.934;2022-10-19T05:18:41;7.57;;;4.63;;
10110;SDS011;5095;49.796;9.934;2022-10-19T05:21:12;7.83;;;3.77;;
10110;SDS011;5095;49.796;9.934;2022-10-19T05:23:38;6.83;;;3.90;;
10110;SDS011;5095;49.796;9.934;2022-10-19T05:26:06;10.67;;;6.43;;
10110;SDS011;5095;49.796;9.934;2022-10-19T05:28:32;15.90;;;9.27;;
10110;SDS011;5095;49.796;9.934;2022-10-19T05:31:09;13.53;;;7.30;;
10110;SDS011;5095;49.796;9.934;2022-10-19T05:33:36;19.20;;;9.50;;
10110;SDS011;5095;49.796;9.934;2022-10-19T05:36:21;16.77;;;8.97;;
10110;SDS011;5095;49.796;9.934;2022-10-19T05:38:50;13.83;;;7.70;;
10110;SDS011;5095;49.796;9.934;2022-10-19T05:41:17;14.83;;;8.17;;
10110;SDS011;5095;49.796;9.934;2022-10-19T05:43:43;14.23;;;8.77;;
10110;SDS011;5095;49.796;9.934;2022-10-19T05:46:11;15.43;;;9.87;;
10110;SDS011;5095;49.796;9.934;2022-10-19T05:48:37;18.60;;;9.07;;
10110;SDS011;5095;49.796;9.934;2022-10-19T05:51:04;13.90;;;9.47;;
10110;SDS011;5095;49.796;9.934;2022-10-19T05:53:31;17.03;;;10.80;;
10110;SDS011;5095;49.796;9.934;2022-10-19T05:55:57;18.47;;;9.93;;
10110;SDS011;5095;49.796;9.934;2022-10-19T05:58:23;16.73;;;10.63;;
10110;SDS011;5095;49.796;9.934;2022-10-19T06:00:50;18.13;;;11.07;;
10110;SDS011;5095;49.796;9.934;2022-10-19T06:03:16;17.67;;;9.70;;
10110;SDS011;5095;49.796;9.934;2022-10-19T06:05:42;21.17;;;10.83;;
10110;SDS011;5095;49.796;9.934;2022-10-19T06:08:08;17.20;;;10.13;;
10110;SDS011;5095;49.796;9.934;2022-10-19T06:10:34;17.70;;;10.67;;
10110;SDS011;5095;49.796;9.934;2022-10-19T06:13:00;24.10;;;11.17;;
10110;SDS011;5095;49.796;9.934;2022-10-19T06:15:26;24.60;;;11.07;;
10110;SDS011;5095;49.796;9.934;2022-10-19T06:17:52;22.00;;;11.50;;
10110;SDS011;5095;49.796;9.934;2022-10-19T06:20:18;24.30;;;11.83;;
10110;SDS011;5095;49.796;9.934;2022-10-19T06:22:44;17.30;;;10.67;;
10110;SDS011;5095;49.796;9.934;2022-10-19T06:25:10;18.90;;;10.70;;
10110;SDS011;5095;49.796;9.934;2022-10-19T06:27:36;17.87;;;11.37;;
10110;SDS011;5095;49.796;9.934;2022-10-19T06:30:03;17.93;;;10.70;;
10110;SDS011;5095;49.796;9.934;2022-10-19T06:32:29;18.27;;;10.53;;
10110;SDS011;5095;49.796;9.934;2022-10-19T06:34:56;17.23;;;10.40;;
10110;SDS011;5095;49.796;9.934;2022-10-19T06:37:22;14.77;;;9.30;;
10110;SDS011;5095;49.796;9.934;2022-10-19T06:39:48;22.57;;;10.70;;
10110;SDS011;5095;49.796;9.934;2022-10-19T06:42:14;17.13;;;11.93;;
10110;SDS011;5095;49.796;9.934;2022-10-19T06:44:40;14.10;;;9.17;;
10110;SDS011;5095;49.796;9.934;2022-10-19T06:47:06;17.23;;;11.10;;
10110;SDS011;5095;49.796;9.934;2022-10-19T06:49:32;18.43;;;10.90;;
10110;SDS011;5095;49.796;9.934;2022-10-19T06:51:59;21.10;;;9.80;;
10110;SDS011;5095;49.796;9.934;2022-10-19T06:54:25;17.43;;;10.23;;
10110;SDS011;5095;49.796;9.934;2022-10-19T06:56:51;21.10;;;9.10;;
10110;SDS011;5095;49.796;9.934;2022-10-19T06:59:17;15.80;;;10.77;;
10110;SDS011;5095;49.796;9.934;2022-10-19T07:01:43;14.37;;;10.20;;
10110;SDS011;5095;49.796;9.934;2022-10-19T07:04:09;13.43;;;9.03;;
10110;SDS011;5095;49.796;9.934;2022-10-19T07:06:35;12.67;;;7.90;;
10110;SDS011;5095;49.796;9.934;2022-10-19T07:09:01;14.50;;;8.83;;
10110;SDS011;5095;49.796;9.934;2022-10-19T07:11:28;17.43;;;9.70;;
10110;SDS011;5095;49.796;9.934;2022-10-19T07:13:54;13.40;;;9.40;;
10110;SDS011;5095;49.796;9.934;2022-10-19T07:16:20;15.63;;;9.23;;
10110;SDS011;5095;49.796;9.934;2022-10-19T07:18:46;12.93;;;9.53;;
10110;SDS011;5095;49.796;9.934;2022-10-19T07:21:13;15.43;;;8.63;;
10110;SDS011;5095;49.796;9.934;2022-10-19T07:23:40;14.10;;;9.77;;
10110;SDS011;5095;49.796;9.934;2022-10-19T07:26:10;11.97;;;7.43;;
10110;SDS011;5095;49.796;9.934;2022-10-19T07:28:37;12.50;;;9.20;;
10110;SDS011;5095;49.796;9.934;2022-10-19T07:31:04;13.03;;;8.90;;
10110;SDS011;5095;49.796;9.934;2022-10-19T07:33:30;12.40;;;8.57;;
10110;SDS011;5095;49.796;9.934;2022-10-19T07:36:00;12.30;;;8.40;;
10110;SDS011;5095;49.796;9.934;2022-10-19T07:38:26;10.57;;;8.20;;
10110;SDS011;5095;49.796;9.934;2022-10-19T07:41:04;9.20;;;6.80;;
10110;SDS011;5095;49.796;9.934;2022-10-19T07:43:30;11.43;;;8.10;;
10110;SDS011;5095;49.796;9.934;2022-10-19T07:45:59;12.10;;;8.90;;
10110;SDS011;5095;49.796;9.934;2022-10-19T07:48:25;14.03;;;9.90;;
10110;SDS011;5095;49.796;9.934;2022-10-19T07:50:52;13.43;;;9.83;;
10110;SDS011;5095;49.796;9.934;2022-10-19T07:53:18;11.40;;;7.70;;
10110;SDS011;5095;49.796;9.934;2022-10-19T07:55:44;14.87;;;10.83;;
10110;SDS011;5095;49.796;9.934;2022-10-19T07:58:10;13.27;;;9.73;;
10110;SDS011;5095;49.796;9.934;2022-10-19T08:00:36;19.60;;;10.87;;
10110;SDS011;5095;49.796;9.934;2022-10-19T08:03:02;18.33;;;11.10;;
10110;SDS011;5095;49.796;9.934;2022-10-19T08:05:28;13.87;;;10.03;;
10110;SDS011;5095;49.796;9.934;2022-10-19T08:07:56;16.70;;;11.70;;
10110;SDS011;5095;49.796;9.934;2022-10-19T08:10:22;16.13;;;11.47;;
10110;SDS011;5095;49.796;9.934;2022-10-19T08:12:48;12.43;;;9.03;;
10110;SDS011;5095;49.796;9.934;2022-10-19T08:15:14;19.27;;;11.57;;
10110;SDS011;5095;49.796;9.934;2022-10-19T08:17:40;14.03;;;10.23;;
10110;SDS011;5095;49.796;9.934;2022-10-19T08:20:06;15.73;;;10.47;;
10110;SDS011;5095;49.796;9.934;2022-10-19T08:22:32;14.30;;;9.57;;
10110;SDS011;5095;49.796;9.934;2022-10-19T08:24:59;15.47;;;10.30;;
10110;SDS011;5095;49.796;9.934;2022-10-19T08:27:25;19.33;;;11.07;;
10110;SDS011;5095;49.796;9.934;2022-10-19T08:29:51;15.80;;;10.47;;
10110;SDS011;5095;49.796;9.934;2022-10-19T08:32:17;15.93;;;10.57;;
10110;SDS011;5095;49.796;9.934;2022-10-19T08:34:43;11.00;;;7.60;;
10110;SDS011;5095;49.796;9.934;2022-10-19T08:37:09;10.20;;;6.80;;
10110;SDS011;5095;49.796;9.934;2022-10-19T08:39:35;17.00;;;10.23;;
10110;SDS011;5095;49.796;9.934;2022-10-19T08:42:05;17.00;;;10.60;;
10110;SDS011;5095;49.796;9.934;2022-10-19T08:44:45;18.10;;;11.93;;
10110;SDS011;5095;49.796;9.934;2022-10-19T08:49:44;17.70;;;11.47;;
10110;SDS011;5095;49.796;9.934;2022-10-19T08:52:12;20.77;;;11.47;;
10110;SDS011;5095;49.796;9.934;2022-10-19T08:59:57;20.60;;;11.70;;
10110;SDS011;5095;49.796;9.934;2022-10-19T09:02:32;15.93;;;10.23;;
10110;SDS011;5095;49.796;9.934;2022-10-19T09:05:02;14.43;;;9.23;;
10110;SDS011;5095;49.796;9.934;2022-10-19T09:07:34;17.53;;;10.70;;
10110;SDS011;5095;49.796;9.934;2022-10-19T09:10:04;17.93;;;11.93;;
10110;SDS011;5095;49.796;9.934;2022-10-19T09:12:41;17.97;;;12.33;;
10110;SDS011;5095;49.796;9.934;2022-10-19T09:15:11;20.23;;;12.73;;
10110;SDS011;5095;49.796;9.934;2022-10-19T09:17:38;17.37;;;11.17;;
10110;SDS011;5095;49.796;9.934;2022-10-19T09:20:18;21.70;;;13.30;;
10110;SDS011;5095;49.796;9.934;2022-10-19T09:22:46;19.07;;;12.50;;
10110;SDS011;5095;49.796;9.934;2022-10-19T09:25:21;17.63;;;11.07;;
10110;SDS011;5095;49.796;9.934;2022-10-19T09:27:48;12.90;;;9.97;;
10110;SDS011;5095;49.796;9.934;2022-10-19T09:30:18;13.67;;;9.43;;
10110;SDS011;5095;49.796;9.934;2022-10-19T09:32:45;18.23;;;11.67;;
10110;SDS011;5095;49.796;9.934;2022-10-19T09:35:27;16.87;;;11.20;;
10110;SDS011;5095;49.796;9.934;2022-10-19T09:37:55;12.67;;;8.60;;
10110;SDS011;5095;49.796;9.934;2022-10-19T09:40:23;17.67;;;10.20;;
10110;SDS011;5095;49.796;9.934;2022-10-19T09:42:49;19.87;;;11.53;;
10110;SDS011;5095;49.796;9.934;2022-10-19T09:48:13;22.53;;;11.83;;
10110;SDS011;5095;49.796;9.934;2022-10-19T09:50:42;15.43;;;10.23;;
10110;SDS011;5095;49.796;9.934;2022-10-19T09:53:10;18.40;;;11.77;;
10110;SDS011;5095;49.796;9.934;2022-10-19T09:55:41;20.27;;;12.80;;
10110;SDS011;5095;49.796;9.934;2022-10-19T10:05:46;21.30;;;11.47;;
10110;SDS011;5095;49.796;9.934;2022-10-19T10:08:13;20.47;;;10.50;;
10110;SDS011;5095;49.796;9.934;2022-10-19T10:10:44;17.73;;;10.40;;
10110;SDS011;5095;49.796;9.934;2022-10-19T10:13:15;13.77;;;9.37;;
10110;SDS011;5095;49.796;9.934;2022-10-19T10:15:42;18.93;;;10.20;;
10110;SDS011;5095;49.796;9.934;2022-10-19T10:18:12;20.33;;;10.27;;
10110;SDS011;5095;49.796;9.934;2022-10-19T10:20:54;17.40;;;11.20;;
10110;SDS011;5095;49.796;9.934;2022-10-19T10:23:24;15.37;;;9.40;;
10110;SDS011;5095;49.796;9.934;2022-10-19T10:25:53;11.40;;;7.50;;
10110;SDS011;5095;49.796;9.934;2022-10-19T10:28:21;12.60;;;7.70;;
10110;SDS011;5095;49.796;9.934;2022-10-19T10:30:47;9.17;;;5.90;;
10110;SDS011;5095;49.796;9.934;2022-10-19T10:33:15;10.73;;;6.70;;
10110;SDS011;5095;49.796;9.934;2022-10-19T10:35:46;11.30;;;7.17;;
10110;SDS011;5095;49.796;9.934;2022-10-19T10:38:17;8.50;;;6.23;;
10110;SDS011;5095;49.796;9.934;2022-10-19T10:40:51;10.07;;;7.00;;
10110;SDS011;5095;49.796;9.934;2022-10-19T10:43:18;7.93;;;5.30;;
10110;SDS011;5095;49.796;9.934;2022-10-19T10:45:46;9.70;;;5.97;;
10110;SDS011;5095;49.796;9.934;2022-10-19T10:50:44;7.93;;;5.33;;
10110;SDS011;5095;49.796;9.934;2022-10-19T10:53:30;30.00;;;11.90;;
10110;SDS011;5095;49.796;9.934;2022-10-19T10:55:56;10.63;;;6.77;;
10110;SDS011;5095;49.796;9.934;2022-10-19T10:58:37;9.50;;;6.88;;
10110;SDS011;5095;49.796;9.934;2022-10-19T11:01:11;9.43;;;6.50;;
10110;SDS011;5095;49.796;9.934;2022-10-19T11:03:38;10.67;;;6.83;;
10110;SDS011;5095;49.796;9.934;2022-10-19T11:06:07;8.15;;;5.47;;
10110;SDS011;5095;49.796;9.934;2022-10-19T11:11:10;8.93;;;6.53;;
10110;SDS011;5095;49.796;9.934;2022-10-19T11:16:15;8.63;;;5.50;;
10110;SDS011;5095;49.796;9.934;2022-10-19T11:18:43;7.40;;;5.07;;
10110;SDS011;5095;49.796;9.934;2022-10-19T11:21:19;7.57;;;4.50;;
10110;SDS011;5095;49.796;9.934;2022-10-19T11:31:46;7.63;;;4.70;;
10110;SDS011;5095;49.796;9.934;2022-10-19T11:37:01;7.70;;;5.50;;
10110;SDS011;5095;49.796;9.934;2022-10-19T11:44:45;9.07;;;5.03;;
10110;SDS011;5095;49.796;9.934;2022-10-19T11:52:26;7.73;;;5.37;;
10110;SDS011;5095;49.796;9.934;2022-10-19T11:55:00;8.30;;;5.37;;
10110;SDS011;5095;49.796;9.934;2022-10-19T11:57:42;9.70;;;5.37;;
10110;SDS011;5095;49.796;9.934;2022-10-19T12:00:16;9.57;;;4.57;;
10110;SDS011;5095;49.796;9.934;2022-10-19T12:13:11;6.47;;;4.67;;
10110;SDS011;5095;49.796;9.934;2022-10-19T12:15:39;5.40;;;4.17;;
10110;SDS011;5095;49.796;9.934;2022-10-19T12:18:12;8.93;;;5.50;;
10110;SDS011;5095;49.796;9.934;2022-10-19T12:20:42;5.55;;;4.40;;
10110;SDS011;5095;49.796;9.934;2022-10-19T12:23:29;4.90;;;3.60;;
10110;SDS011;5095;49.796;9.934;2022-10-19T12:25:57;6.90;;;4.13;;
10110;SDS011;5095;49.796;9.934;2022-10-19T12:28:25;8.07;;;5.00;;
10110;SDS011;5095;49.796;9.934;2022-10-19T12:30:52;8.53;;;5.70;;
10110;SDS011;5095;49.796;9.934;2022-10-19T12:33:23;5.17;;;3.90;;
10110;SDS011;5095;49.796;9.934;2022-10-19T12:36:04;5.17;;;3.80;;
10110;SDS011;5095;49.796;9.934;2022-10-19T12:46:49;8.90;;;5.53;;
10110;SDS011;5095;49.796;9.934;2022-10-19T12:51:52;9.20;;;5.80;;
10110;SDS011;5095;49.796;9.934;2022-10-19T12:54:26;5.93;;;4.30;;
10110;SDS011;5095;49.796;9.934;2022-10-19T12:56:53;10.13;;;5.63;;
10110;SDS011;5095;49.796;9.934;2022-10-19T12:59:22;8.10;;;5.33;;
10110;SDS011;5095;49.796;9.934;2022-10-19T13:01:49;7.10;;;5.20;;
10110;SDS011;5095;49.796;9.934;2022-10-19T13:04:25;6.10;;;4.30;;
10110;SDS011;5095;49.796;9.934;2022-10-19T13:43:17;11.30;;;7.13;;
10110;SDS011;5095;49.796;9.934;2022-10-19T13:45:51;9.77;;;6.40;;
10110;SDS011;5095;49.796;9.934;2022-10-19T13:48:21;7.97;;;5.60;;
10110;SDS011;5095;49.796;9.934;2022-10-19T13:50:51;8.63;;;5.93;;
10110;SDS011;5095;49.796;9.934;2022-10-19T13:53:23;6.17;;;4.77;;
10110;SDS011;5095;49.796;9.934;2022-10-19T13:58:26;9.73;;;6.93;;
10110;SDS011;5095;49.796;9.934;2022-10-19T14:01:05;9.03;;;6.10;;
10110;SDS011;5095;49.796;9.934;2022-10-19T14:11:40;8.50;;;5.47;;
10110;SDS011;5095;49.796;9.934;2022-10-19T14:16:34;7.45;;;5.03;;
10110;SDS011;5095;49.796;9.934;2022-10-19T14:19:00;7.50;;;6.07;;
10110;SDS011;5095;49.796;9.934;2022-10-19T14:21:33;10.60;;;6.37;;
10110;SDS011;5095;49.796;9.934;2022-10-19T14:24:17;7.83;;;5.30;;
10110;SDS011;5095;49.796;9.934;2022-10-19T14:26:44;7.47;;;5.73;;
10110;SDS011;5095;49.796;9.934;2022-10-19T14:29:11;8.57;;;5.93;;
10110;SDS011;5095;49.796;9.934;2022-10-19T14:31:37;9.70;;;6.60;;
10110;SDS011;5095;49.796;9.934;2022-10-19T14:34:03;7.80;;;5.47;;
10110;SDS011;5095;49.796;9.934;2022-10-19T14:36:34;7.23;;;4.47;;
10110;SDS011;5095;49.796;9.934;2022-10-19T14:39:01;6.70;;;4.90;;
10110;SDS011;5095;49.796;9.934;2022-10-19T14:43:56;8.43;;;6.83;;
10110;SDS011;5095;49.796;9.934;2022-10-19T14:46:29;9.07;;;6.60;;
10110;SDS011;5095;49.796;9.934;2022-10-19T14:49:00;7.50;;;5.60;;
10110;SDS011;5095;49.796;9.934;2022-10-19T14:53:56;8.80;;;5.90;;
10110;SDS011;5095;49.796;9.934;2022-10-19T14:56:25;7.47;;;5.10;;
10110;SDS011;5095;49.796;9.934;2022-10-19T15:01:23;7.68;;;4.53;;
10110;SDS011;5095;49.796;9.934;2022-10-19T15:03:49;9.37;;;6.07;;
10110;SDS011;5095;49.796;9.934;2022-10-19T15:06:29;7.90;;;5.43;;
10110;SDS011;5095;49.796;9.934;2022-10-19T15:08:57;5.63;;;4.10;;
10110;SDS011;5095;49.796;9.934;2022-10-19T15:11:25;8.17;;;5.43;;
10110;SDS011;5095;49.796;9.934;2022-10-19T15:13:59;8.50;;;6.47;;
10110;SDS011;5095;49.796;9.934;2022-10-19T15:16:30;8.33;;;6.17;;
10110;SDS011;5095;49.796;9.934;2022-10-19T15:19:01;10.10;;;5.80;;
10110;SDS011;5095;49.796;9.934;2022-10-19T15:21:27;8.83;;;5.63;;
10110;SDS011;5095;49.796;9.934;2022-10-19T15:24:03;8.37;;;6.07;;
10110;SDS011;5095;49.796;9.934;2022-10-19T15:26:30;15.37;;;6.60;;
10110;SDS011;5095;49.796;9.934;2022-10-19T15:29:09;8.07;;;5.03;;
10110;SDS011;5095;49.796;9.934;2022-10-19T15:31:36;7.07;;;4.90;;
10110;SDS011;5095;49.796;9.934;2022-10-19T15:34:02;8.13;;;5.60;;
10110;SDS011;5095;49.796;9.934;2022-10-19T15:36:29;11.40;;;7.10;;
10110;SDS011;5095;49.796;9.934;2022-10-19T15:41:29;8.37;;;5.33;;
10110;SDS011;5095;49.796;9.934;2022-10-19T15:43:56;7.17;;;5.37;;
10110;SDS011;5095;49.796;9.934;2022-10-19T15:46:28;7.93;;;5.63;;
10110;SDS011;5095;49.796;9.934;2022-10-19T15:48:59;7.97;;;5.90;;
10110;SDS011;5095;49.796;9.934;2022-10-19T15:56:18;9.17;;;5.67;;
10110;SDS011;5095;49.796;9.934;2022-10-19T15:58:47;8.97;;;5.80;;
10110;SDS011;5095;49.796;9.934;2022-10-19T16:01:17;7.10;;;5.50;;
10110;SDS011;5095;49.796;9.934;2022-10-19T16:03:43;7.73;;;5.80;;
10110;SDS011;5095;49.796;9.934;2022-10-19T16:06:09;8.57;;;5.77;;
10110;SDS011;5095;49.796;9.934;2022-10-19T16:08:36;9.90;;;6.67;;
10110;SDS011;5095;49.796;9.934;2022-10-19T16:11:02;9.37;;;5.93;;
10110;SDS011;5095;49.796;9.934;2022-10-19T16:13:28;7.83;;;5.90;;
10110;SDS011;5095;49.796;9.934;2022-10-19T16:15:58;7.67;;;5.40;;
10110;SDS011;5095;49.796;9.934;2022-10-19T16:18:25;8.67;;;5.87;;
10110;SDS011;5095;49.796;9.934;2022-10-19T16:20:51;11.37;;;7.33;;
10110;SDS011;5095;49.796;9.934;2022-10-19T16:23:17;10.47;;;6.53;;
10110;SDS011;5095;49.796;9.934;2022-10-19T16:25:43;6.53;;;5.27;;
10110;SDS011;5095;49.796;9.934;2022-10-19T16:28:09;11.80;;;6.30;;
10110;SDS011;5095;49.796;9.934;2022-10-19T16:30:36;9.10;;;5.73;;
10110;SDS011;5095;49.796;9.934;2022-10-19T16:33:02;8.83;;;6.50;;
10110;SDS011;5095;49.796;9.934;2022-10-19T16:35:28;8.30;;;5.97;;
10110;SDS011;5095;49.796;9.934;2022-10-19T16:37:53;12.23;;;5.77;;
10110;SDS011;5095;49.796;9.934;2022-10-19T16:40:19;10.90;;;6.50;;
10110;SDS011;5095;49.796;9.934;2022-10-19T16:42:46;10.93;;;7.37;;
10110;SDS011;5095;49.796;9.934;2022-10-19T16:45:11;11.30;;;8.10;;
10110;SDS011;5095;49.796;9.934;2022-10-19T16:47:38;9.23;;;6.87;;
10110;SDS011;5095;49.796;9.934;2022-10-19T16:50:04;10.00;;;6.40;;
10110;SDS011;5095;49.796;9.934;2022-10-19T16:52:31;10.37;;;6.33;;
10110;SDS011;5095;49.796;9.934;2022-10-19T16:54:57;8.70;;;6.20;;
10110;SDS011;5095;49.796;9.934;2022-10-19T16:57:26;9.93;;;6.60;;
10110;SDS011;5095;49.796;9.934;2022-10-19T16:59:55;8.60;;;6.27;;
10110;SDS011;5095;49.796;9.934;2022-10-19T17:02:21;10.70;;;6.57;;
10110;SDS011;5095;49.796;9.934;2022-10-19T17:04:47;9.33;;;6.40;;
10110;SDS011;5095;49.796;9.934;2022-10-19T17:07:13;10.13;;;6.72;;
10110;SDS011;5095;49.796;9.934;2022-10-19T17:09:39;8.30;;;5.93;;
10110;SDS011;5095;49.796;9.934;2022-10-19T17:12:05;9.23;;;6.97;;
10110;SDS011;5095;49.796;9.934;2022-10-19T17:14:32;11.93;;;6.60;;
10110;SDS011;5095;49.796;9.934;2022-10-19T17:16:58;11.20;;;7.20;;
10110;SDS011;5095;49.796;9.934;2022-10-19T17:19:24;13.93;;;8.10;;
10110;SDS011;5095;49.796;9.934;2022-10-19T17:21:50;10.37;;;7.33;;
10110;SDS011;5095;49.796;9.934;2022-10-19T17:24:18;10.73;;;7.43;;
10110;SDS011;5095;49.796;9.934;2022-10-19T17:26:46;10.80;;;7.47;;
10110;SDS011;5095;49.796;9.934;2022-10-19T17:29:12;10.83;;;7.53;;
10110;SDS011;5095;49.796;9.934;2022-10-19T17:31:39;9.40;;;7.33;;